Time;durP1;ratioP1;P1;durP2;ratioP2;P2;SDS_P1;SDS_P2;PMS_P1;PMS_P2;Temp;Humidity;BMP_temperature;BMP_pressure;BME280_temperature;BME280_humidity;BME280_pressure;Samples;Min_cycle;Max_cycle;Signal;HPM_P1;HPM_P2
2024/03/26 00:02:19;;;;;;;5.53;2.95;;;4.50;99.90;;;;;;5060106;28;20032;-72
2024/03/26 00:04:44;;;;;;;8.38;2.45;;;4.50;99.90;;;;;;5041951;28;20036;-72
2024/03/26 00:07:10;;;;;;;5.25;2.55;;;4.50;99.90;;;;;;5058407;28;20039;-72
2024/03/26 00:09:36;;;;;;;5.72;2.63;;;4.50;99.90;;;;;;5055577;28;20033;-72
2024/03/26 00:12:02;;;;;;;3.72;2.92;;;4.50;99.90;;;;;;5059625;28;20039;-72
2024/03/26 00:14:28;;;;;;;4.72;2.55;;;4.50;99.90;;;;;;5060396;28;20040;-72
2024/03/26 00:16:54;;;;;;;5.88;2.75;;;4.50;99.90;;;;;;5057783;28;20060;-72
2024/03/26 00:19:20;;;;;;;7.43;2.60;;;4.50;99.90;;;;;;5040028;28;20106;-72
2024/03/26 00:21:45;;;;;;;6.10;2.70;;;4.50;99.90;;;;;;5046105;28;20039;-72
2024/03/26 00:24:11;;;;;;;4.85;2.33;;;4.50;99.90;;;;;;5056837;28;20690;-72
2024/03/26 00:26:37;;;;;;;7.10;2.92;;;4.50;99.90;;;;;;5055464;28;20056;-72
2024/03/26 00:29:03;;;;;;;4.28;2.58;;;4.50;99.90;;;;;;5059392;28;20040;-72
2024/03/26 00:31:34;;;;;;;7.22;3.28;;;4.50;99.90;;;;;;5058669;28;20035;-72
2024/03/26 00:34:00;;;;;;;5.88;2.70;;;4.50;99.90;;;;;;5055954;28;20809;-72
2024/03/26 00:36:26;;;;;;;5.85;3.58;;;4.40;99.90;;;;;;5056684;28;20032;-72
2024/03/26 00:38:52;;;;;;;4.88;2.88;;;4.40;99.90;;;;;;5058637;28;20443;-72
2024/03/26 00:41:18;;;;;;;7.97;3.05;;;4.40;99.90;;;;;;5060318;28;20032;-72
2024/03/26 00:43:44;;;;;;;8.25;3.53;;;4.30;99.90;;;;;;5060174;28;20055;-72
2024/03/26 00:46:09;;;;;;;8.75;3.00;;;4.20;99.90;;;;;;5059638;28;20036;-71
2024/03/26 00:48:35;;;;;;;4.97;3.33;;;4.10;99.90;;;;;;5044484;28;20883;-72
2024/03/26 00:51:01;;;;;;;6.63;2.70;;;4.10;99.90;;;;;;5059585;28;20562;-72
2024/03/26 00:53:27;;;;;;;11.73;3.08;;;4.00;99.90;;;;;;5060128;28;20537;-72
2024/03/26 00:55:53;;;;;;;8.98;3.17;;;4.00;99.90;;;;;;5041162;28;20119;-73
2024/03/26 00:58:18;;;;;;;6.43;2.90;;;4.00;99.90;;;;;;5060046;28;20046;-72
2024/03/26 01:00:44;;;;;;;7.45;3.13;;;4.00;99.90;;;;;;5037251;28;20089;-72
2024/03/26 01:03:10;;;;;;;6.03;3.22;;;4.00;99.90;;;;;;5060069;28;20032;-72
2024/03/26 01:05:36;;;;;;;7.85;3.40;;;4.00;99.90;;;;;;5059986;28;20035;-72
2024/03/26 01:08:01;;;;;;;8.82;4.03;;;4.00;99.90;;;;;;5055257;28;20458;-72
2024/03/26 01:10:27;;;;;;;5.15;3.13;;;4.00;99.90;;;;;;5059299;28;20029;-72
2024/03/26 01:12:53;;;;;;;9.90;4.45;;;4.00;99.90;;;;;;5028571;28;20035;-72
2024/03/26 01:15:19;;;;;;;9.13;4.15;;;4.00;99.90;;;;;;5059987;28;20032;-72
2024/03/26 01:17:45;;;;;;;8.35;3.85;;;4.10;99.90;;;;;;5059433;28;20528;-73
2024/03/26 01:20:11;;;;;;;7.68;3.85;;;4.10;99.90;;;;;;5059393;28;20029;-72
2024/03/26 01:22:38;;;;;;;5.22;3.28;;;4.10;99.90;;;;;;5059903;28;20040;-72
2024/03/26 01:25:07;;;;;;;6.13;4.15;;;4.10;99.90;;;;;;5059956;28;20036;-72
2024/03/26 01:27:33;;;;;;;5.50;3.55;;;4.10;99.90;;;;;;5059047;28;20577;-72
2024/03/26 01:29:59;;;;;;;7.32;3.30;;;4.10;99.90;;;;;;5059362;28;20036;-72
2024/03/26 01:32:25;;;;;;;10.63;3.88;;;4.10;99.90;;;;;;5039892;28;20543;-72
2024/03/26 01:34:53;;;;;;;9.15;4.05;;;4.10;99.90;;;;;;5056421;28;20567;-72
2024/03/26 01:37:19;;;;;;;7.57;4.10;;;4.10;99.90;;;;;;5059110;28;20123;-72
2024/03/26 01:39:45;;;;;;;8.07;4.35;;;4.10;99.90;;;;;;5059461;28;20033;-72
2024/03/26 01:42:11;;;;;;;8.23;4.35;;;4.20;99.90;;;;;;5057711;28;20553;-72
2024/03/26 01:44:38;;;;;;;9.13;4.43;;;4.10;99.90;;;;;;5058250;28;20040;-72
2024/03/26 01:47:04;;;;;;;9.43;4.82;;;4.20;99.90;;;;;;5059089;28;20024;-71
2024/03/26 01:49:32;;;;;;;6.35;4.45;;;4.10;99.90;;;;;;5058065;28;20024;-72
2024/03/26 01:51:58;;;;;;;6.38;4.35;;;4.10;99.90;;;;;;5057304;28;20395;-72
2024/03/26 01:54:24;;;;;;;9.93;5.00;;;4.10;99.90;;;;;;5059372;28;20060;-72
2024/03/26 01:56:50;;;;;;;8.30;5.22;;;4.10;99.90;;;;;;5042423;28;20060;-72
2024/03/26 01:59:16;;;;;;;8.57;5.05;;;4.10;99.90;;;;;;5057187;28;20028;-72
2024/03/26 02:01:42;;;;;;;9.95;4.95;;;4.10;99.90;;;;;;5057981;28;20059;-72
2024/03/26 02:04:08;;;;;;;7.50;5.15;;;4.10;99.90;;;;;;5059447;28;20036;-72
2024/03/26 02:06:34;;;;;;;12.65;6.43;;;4.10;99.90;;;;;;5059225;28;20036;-72
2024/03/26 02:09:02;;;;;;;11.82;6.10;;;4.10;99.90;;;;;;5058991;28;20086;-72
2024/03/26 02:11:28;;;;;;;11.07;6.22;;;4.10;99.90;;;;;;5060057;28;20036;-72
2024/03/26 02:13:54;;;;;;;13.10;7.22;;;4.10;99.90;;;;;;5063986;28;20028;-73
2024/03/26 02:16:20;;;;;;;12.68;7.00;;;4.10;99.90;;;;;;5061080;28;20090;-72
2024/03/26 02:18:45;;;;;;;12.15;7.35;;;4.10;99.90;;;;;;5063026;28;20028;-72
2024/03/26 02:21:11;;;;;;;13.65;7.13;;;4.10;99.90;;;;;;5031002;28;20025;-71
2024/03/26 02:23:37;;;;;;;11.40;6.78;;;4.10;99.90;;;;;;5063649;28;20494;-72
2024/03/26 02:26:03;;;;;;;14.90;6.68;;;4.10;99.90;;;;;;5063046;28;20021;-72
2024/03/26 02:28:29;;;;;;;11.77;6.72;;;4.10;99.90;;;;;;5048507;28;20036;-72
2024/03/26 02:30:55;;;;;;;13.75;6.78;;;4.10;99.90;;;;;;5062990;28;20033;-72
2024/03/26 02:33:20;;;;;;;14.15;6.50;;;4.10;99.90;;;;;;5063535;28;20136;-72
2024/03/26 02:35:46;;;;;;;12.25;6.95;;;4.10;99.90;;;;;;5063154;28;20025;-73
2024/03/26 02:38:12;;;;;;;10.68;6.80;;;4.00;99.90;;;;;;5063553;28;20364;-72
2024/03/26 02:40:38;;;;;;;9.50;5.97;;;4.10;99.90;;;;;;5062820;28;20127;-72
2024/03/26 02:43:04;;;;;;;13.50;6.40;;;4.00;99.90;;;;;;5062371;28;20035;-70
2024/03/26 02:45:30;;;;;;;10.02;6.55;;;3.90;99.90;;;;;;5062863;28;20101;-71
2024/03/26 02:47:56;;;;;;;13.50;7.20;;;3.90;99.90;;;;;;5062451;28;20036;-71
2024/03/26 02:50:22;;;;;;;12.07;6.30;;;3.90;99.90;;;;;;5060836;28;20128;-72
2024/03/26 02:52:48;;;;;;;10.48;6.00;;;3.90;99.90;;;;;;5047566;28;20829;-72
2024/03/26 02:55:14;;;;;;;9.20;5.57;;;4.00;99.90;;;;;;5062742;28;20035;-72
2024/03/26 02:57:39;;;;;;;10.73;5.97;;;3.90;99.90;;;;;;5061877;28;20101;-72
2024/03/26 03:00:06;;;;;;;10.40;6.00;;;3.90;99.90;;;;;;5062374;28;20072;-72
2024/03/26 03:02:32;;;;;;;10.98;5.82;;;3.90;99.90;;;;;;5043296;28;20521;-72
2024/03/26 03:04:58;;;;;;;11.60;6.05;;;3.90;99.90;;;;;;5062603;28;20139;-72
2024/03/26 03:07:24;;;;;;;11.65;6.93;;;3.90;99.90;;;;;;5062297;28;20517;-72
2024/03/26 03:09:50;;;;;;;10.93;6.15;;;3.90;99.90;;;;;;5063169;28;20621;-72
2024/03/26 03:12:15;;;;;;;11.02;6.47;;;3.90;99.90;;;;;;5062971;28;20039;-72
2024/03/26 03:14:41;;;;;;;20.15;6.53;;;3.90;99.90;;;;;;5062316;28;20035;-73
2024/03/26 03:17:07;;;;;;;11.25;6.50;;;3.90;99.90;;;;;;5046996;28;20028;-72
2024/03/26 03:19:33;;;;;;;11.80;6.45;;;3.90;99.90;;;;;;5062575;28;20741;-72
2024/03/26 03:21:59;;;;;;;8.88;5.32;;;3.90;99.90;;;;;;5062355;28;20028;-72
2024/03/26 03:24:24;;;;;;;9.20;5.50;;;3.80;99.90;;;;;;5062168;28;20034;-72
2024/03/26 03:26:50;;;;;;;11.80;5.45;;;3.80;99.90;;;;;;5061706;28;20039;-72
2024/03/26 03:29:16;;;;;;;11.55;5.15;;;3.70;99.90;;;;;;5062436;28;20032;-72
2024/03/26 03:31:42;;;;;;;7.75;4.63;;;3.70;99.90;;;;;;5062140;28;20101;-71
2024/03/26 03:34:08;;;;;;;9.00;5.88;;;3.60;99.90;;;;;;5042496;28;20142;-72
2024/03/26 03:36:34;;;;;;;11.95;5.35;;;3.60;99.90;;;;;;5062086;28;20608;-72
2024/03/26 03:39:00;;;;;;;10.15;5.43;;;3.60;99.90;;;;;;5061901;28;20384;-72
2024/03/26 03:41:26;;;;;;;10.77;5.85;;;3.60;99.90;;;;;;5027028;28;20036;-72
2024/03/26 03:43:52;;;;;;;8.48;5.10;;;3.70;99.90;;;;;;5042672;28;20165;-72
2024/03/26 03:46:17;;;;;;;9.70;5.18;;;3.70;99.90;;;;;;5061462;28;20132;-71
2024/03/26 03:48:43;;;;;;;8.82;5.30;;;3.70;99.90;;;;;;5060655;28;20063;-72
2024/03/26 03:51:09;;;;;;;9.05;4.80;;;3.70;99.90;;;;;;5060115;28;20047;-72
2024/03/26 03:53:34;;;;;;;10.07;4.75;;;3.70;99.90;;;;;;5061975;28;20028;-72
2024/03/26 03:56:00;;;;;;;9.43;4.57;;;3.70;99.90;;;;;;5059924;28;20631;-72
2024/03/26 03:58:26;;;;;;;11.43;5.15;;;3.70;99.90;;;;;;5061325;28;20116;-72
2024/03/26 04:00:52;;;;;;;9.82;4.95;;;3.70;99.90;;;;;;5061858;28;20686;-72
2024/03/26 04:03:17;;;;;;;6.85;3.95;;;3.60;99.90;;;;;;5061527;28;20059;-73
2024/03/26 04:05:43;;;;;;;7.78;4.43;;;3.50;99.90;;;;;;5061224;28;20036;-72
2024/03/26 04:08:09;;;;;;;9.27;3.88;;;3.60;99.90;;;;;;5060856;28;20028;-72
2024/03/26 04:10:40;;;;;;;9.05;4.45;;;3.60;99.90;;;;;;5061718;28;20036;-72
2024/03/26 04:13:05;;;;;;;10.10;4.35;;;3.60;99.90;;;;;;5059022;28;20852;-72
2024/03/26 04:15:31;;;;;;;10.70;4.50;;;3.70;99.90;;;;;;5061208;28;20036;-72
2024/03/26 04:17:57;;;;;;;8.27;4.30;;;3.60;99.90;;;;;;5060320;28;20037;-72
2024/03/26 04:20:23;;;;;;;11.85;4.68;;;3.60;99.90;;;;;;5041064;28;20032;-72
2024/03/26 04:22:49;;;;;;;7.35;3.88;;;3.60;99.90;;;;;;5059652;28;20036;-72
2024/03/26 04:25:15;;;;;;;9.00;4.05;;;3.60;99.90;;;;;;5059658;28;20029;-72
2024/03/26 04:27:41;;;;;;;9.60;4.10;;;3.60;99.90;;;;;;5044616;28;20787;-72
2024/03/26 04:30:10;;;;;;;8.32;3.97;;;3.60;99.90;;;;;;5056656;28;20039;-72
2024/03/26 04:32:36;;;;;;;10.05;3.90;;;3.60;99.90;;;;;;5044514;28;21337;-72
2024/03/26 04:35:02;;;;;;;5.65;3.92;;;3.60;99.90;;;;;;5040144;28;20029;-72
2024/03/26 04:37:28;;;;;;;6.53;3.55;;;3.60;99.90;;;;;;5061252;28;20028;-72
2024/03/26 04:39:54;;;;;;;7.22;3.58;;;3.60;99.90;;;;;;5054133;28;20032;-72
2024/03/26 04:42:20;;;;;;;6.28;3.80;;;3.60;99.90;;;;;;5059117;28;20483;-72
2024/03/26 04:44:46;;;;;;;7.05;3.30;;;3.60;99.90;;;;;;5054050;28;20024;-72
2024/03/26 04:47:12;;;;;;;7.85;3.28;;;3.60;99.90;;;;;;5049592;28;20033;-71
2024/03/26 04:49:38;;;;;;;5.47;3.30;;;3.60;99.90;;;;;;5057221;28;20185;-72
2024/03/26 04:52:04;;;;;;;6.22;3.67;;;3.60;99.90;;;;;;5059538;28;20052;-72
2024/03/26 04:54:30;;;;;;;5.28;3.45;;;3.50;99.90;;;;;;5059822;28;20031;-72
2024/03/26 04:56:56;;;;;;;8.63;4.22;;;3.50;99.90;;;;;;5055680;28;20115;-72
2024/03/26 04:59:21;;;;;;;8.77;3.40;;;3.50;99.90;;;;;;5059711;28;20032;-72
2024/03/26 05:01:48;;;;;;;5.07;3.42;;;3.50;99.90;;;;;;5060141;28;20031;-72
2024/03/26 05:04:14;;;;;;;9.02;4.70;;;3.40;99.90;;;;;;5058674;28;20039;-72
2024/03/26 05:06:40;;;;;;;5.13;3.00;;;3.50;99.90;;;;;;5059566;28;20028;-73
2024/03/26 05:09:06;;;;;;;7.45;4.07;;;3.50;99.90;;;;;;5058150;28;20048;-72
2024/03/26 05:11:31;;;;;;;5.97;3.55;;;3.50;99.90;;;;;;5059289;28;20025;-72
2024/03/26 05:13:57;;;;;;;5.88;4.00;;;3.40;99.90;;;;;;5060547;28;20076;-72
2024/03/26 05:16:23;;;;;;;9.23;3.85;;;3.40;99.90;;;;;;5060221;28;20851;-72
2024/03/26 05:18:48;;;;;;;6.40;3.60;;;3.40;99.90;;;;;;5060397;28;20565;-72
2024/03/26 05:21:15;;;;;;;6.05;3.65;;;3.50;99.90;;;;;;5059777;28;20435;-72
2024/03/26 05:23:42;;;;;;;8.25;3.90;;;3.50;99.90;;;;;;5060660;28;20708;-72
2024/03/26 05:26:08;;;;;;;5.78;3.50;;;3.60;99.90;;;;;;5060318;28;20090;-72
2024/03/26 05:28:34;;;;;;;6.20;3.55;;;3.60;99.90;;;;;;5058516;28;20033;-72
2024/03/26 05:31:17;;;;;;;7.50;3.70;;;3.60;99.90;;;;;;5059272;28;20221;-72
2024/03/26 05:33:45;;;;;;;8.52;3.63;;;3.60;99.90;;;;;;5060341;28;20124;-72
2024/03/26 05:36:12;;;;;;;9.43;3.63;;;3.60;99.90;;;;;;5042669;28;20040;-72
2024/03/26 05:38:38;;;;;;;6.90;4.10;;;3.60;99.90;;;;;;5056154;28;20036;-72
2024/03/26 05:41:03;;;;;;;12.15;4.38;;;3.70;99.90;;;;;;5060363;28;20055;-72
2024/03/26 05:43:29;;;;;;;7.13;4.18;;;3.70;99.90;;;;;;5060121;28;20550;-72
2024/03/26 05:45:55;;;;;;;4.88;3.33;;;3.70;99.90;;;;;;5060001;28;20724;-72
2024/03/26 05:48:21;;;;;;;6.20;3.30;;;3.70;99.90;;;;;;5063480;28;20033;-72
2024/03/26 05:50:46;;;;;;;5.38;3.58;;;3.80;99.90;;;;;;5046873;28;20032;-71
2024/03/26 05:53:13;;;;;;;9.43;3.80;;;3.80;99.90;;;;;;5063558;28;20097;-72
2024/03/26 05:55:39;;;;;;;5.85;3.25;;;3.90;99.90;;;;;;5060630;28;20056;-72
2024/03/26 05:58:05;;;;;;;6.05;3.97;;;4.00;99.90;;;;;;5063724;28;20135;-72
2024/03/26 06:00:30;;;;;;;6.35;3.22;;;4.00;99.90;;;;;;5063921;28;20028;-72
2024/03/26 06:02:56;;;;;;;5.60;3.42;;;4.10;99.90;;;;;;5063732;28;20476;-73
2024/03/26 06:05:22;;;;;;;6.05;3.40;;;4.20;99.90;;;;;;5063504;28;20036;-71
2024/03/26 06:07:48;;;;;;;5.68;3.33;;;4.30;99.90;;;;;;5063712;28;20024;-71
2024/03/26 06:10:14;;;;;;;8.20;3.50;;;4.30;99.90;;;;;;5042970;28;20525;-72
2024/03/26 06:12:41;;;;;;;6.70;2.92;;;4.40;99.90;;;;;;5062110;28;20024;-72
2024/03/26 06:15:10;;;;;;;10.63;3.45;;;4.40;99.90;;;;;;5063887;28;20028;-72
2024/03/26 06:17:35;;;;;;;5.97;3.38;;;4.50;99.90;;;;;;5062771;28;20028;-73
2024/03/26 06:20:04;;;;;;;5.50;3.42;;;4.50;99.90;;;;;;5062550;28;20039;-72
2024/03/26 06:22:30;;;;;;;6.60;3.35;;;4.60;99.90;;;;;;5063616;28;20497;-72
2024/03/26 06:24:56;;;;;;;5.93;3.47;;;4.70;99.90;;;;;;5063389;28;20050;-72
2024/03/26 06:27:21;;;;;;;4.63;3.30;;;4.90;99.90;;;;;;5061174;28;20350;-72
2024/03/26 06:29:47;;;;;;;5.38;3.22;;;5.00;99.90;;;;;;5063281;28;20024;-72
2024/03/26 06:32:13;;;;;;;5.32;3.10;;;5.20;99.90;;;;;;5063551;28;20113;-72
2024/03/26 06:34:39;;;;;;;5.53;3.72;;;5.30;99.90;;;;;;5063202;28;20133;-72
2024/03/26 06:37:05;;;;;;;4.20;3.47;;;5.30;99.90;;;;;;5063124;28;20969;-72
2024/03/26 06:39:30;;;;;;;5.45;3.47;;;5.40;99.90;;;;;;5063346;28;20037;-72
2024/03/26 06:41:56;;;;;;;6.03;3.30;;;5.40;99.90;;;;;;5062925;28;20041;-72
2024/03/26 06:44:22;;;;;;;6.90;3.05;;;5.50;99.90;;;;;;5044684;28;20146;-71
2024/03/26 06:46:49;;;;;;;7.28;3.50;;;5.70;99.90;;;;;;5062706;28;20143;-71
2024/03/26 06:49:15;;;;;;;6.53;3.40;;;5.70;99.90;;;;;;5061590;28;20119;-71
2024/03/26 06:51:41;;;;;;;7.95;2.85;;;5.90;99.90;;;;;;5063052;28;20033;-72
2024/03/26 06:54:07;;;;;;;5.47;3.63;;;6.00;99.90;;;;;;5063355;28;20403;-72
2024/03/26 06:56:33;;;;;;;5.00;3.47;;;6.10;99.90;;;;;;5061301;28;20031;-71
2024/03/26 06:59:00;;;;;;;6.78;3.67;;;6.20;99.90;;;;;;5042142;28;20040;-71
2024/03/26 07:01:26;;;;;;;6.18;3.20;;;6.40;99.90;;;;;;5061036;28;20036;-72
2024/03/26 07:03:52;;;;;;;4.65;3.65;;;6.60;99.90;;;;;;5045523;28;20051;-71
2024/03/26 07:06:18;;;;;;;5.95;2.92;;;7.10;99.90;;;;;;5062947;28;20032;-70
2024/03/26 07:08:44;;;;;;;3.75;2.97;;;7.60;99.90;;;;;;5036358;28;20036;-71
2024/03/26 07:11:10;;;;;;;11.13;3.70;;;8.10;99.90;;;;;;5063047;28;20028;-71
2024/03/26 07:13:36;;;;;;;4.18;2.95;;;8.60;99.90;;;;;;5043824;28;20031;-72
2024/03/26 07:16:04;;;;;;;5.88;3.40;;;8.60;99.90;;;;;;5062637;28;20193;-71
2024/03/26 07:18:30;;;;;;;6.60;3.67;;;8.70;99.90;;;;;;5058655;28;20033;-71
2024/03/26 07:20:59;;;;;;;6.03;3.50;;;8.70;99.90;;;;;;5062418;28;20034;-71
2024/03/26 07:23:28;;;;;;;6.53;2.90;;;8.70;99.90;;;;;;5062783;28;20889;-71
2024/03/26 07:25:54;;;;;;;4.28;2.97;;;8.80;99.90;;;;;;5039904;28;20037;-71
2024/03/26 07:28:20;;;;;;;6.10;3.35;;;8.60;99.90;;;;;;5042723;28;20036;-71
2024/03/26 07:30:46;;;;;;;6.13;3.40;;;8.60;99.90;;;;;;5062023;28;20024;-71
2024/03/26 07:33:12;;;;;;;5.50;3.03;;;8.80;99.90;;;;;;5061845;28;20028;-70
2024/03/26 07:35:38;;;;;;;4.40;3.15;;;8.80;99.90;;;;;;5047557;28;20032;-71
2024/03/26 07:38:04;;;;;;;5.05;2.90;;;8.90;99.90;;;;;;5061860;28;20055;-72
2024/03/26 07:40:30;;;;;;;4.18;3.05;;;9.00;99.90;;;;;;5061195;28;20047;-72
2024/03/26 07:42:56;;;;;;;5.20;3.17;;;9.10;99.90;;;;;;5060345;28;20033;-72
2024/03/26 07:45:22;;;;;;;6.43;2.83;;;9.20;99.90;;;;;;5061596;28;20039;-71
2024/03/26 07:47:48;;;;;;;5.88;2.38;;;9.30;99.90;;;;;;5060394;28;20673;-71
2024/03/26 07:50:14;;;;;;;3.63;2.92;;;9.50;99.90;;;;;;5043130;28;20029;-71
2024/03/26 07:52:40;;;;;;;4.22;3.10;;;9.90;99.90;;;;;;5061715;28;20449;-69
2024/03/26 07:55:06;;;;;;;3.70;2.45;;;10.10;99.90;;;;;;5062223;28;20031;-69
2024/03/26 07:57:32;;;;;;;5.03;2.42;;;10.50;99.90;;;;;;5059770;28;20120;-69
2024/03/26 07:59:58;;;;;;;4.38;2.60;;;10.80;99.30;;;;;;5040366;28;20032;-69
2024/03/26 08:02:24;;;;;;;4.63;2.58;;;11.10;98.60;;;;;;5042609;28;20722;-69
2024/03/26 08:04:49;;;;;;;3.65;2.47;;;11.10;97.70;;;;;;5042403;28;20035;-69
2024/03/26 08:07:16;;;;;;;2.85;2.28;;;11.10;97.60;;;;;;5059069;28;20051;-69
2024/03/26 08:09:42;;;;;;;5.40;2.45;;;11.00;97.00;;;;;;5060418;28;20046;-69
2024/03/26 08:12:08;;;;;;;2.92;2.30;;;11.20;97.50;;;;;;5060813;28;20029;-69
2024/03/26 08:14:36;;;;;;;4.70;2.88;;;11.20;97.40;;;;;;5061473;28;20055;-70
2024/03/26 08:17:02;;;;;;;6.15;2.25;;;11.40;96.60;;;;;;5058710;28;20056;-67
2024/03/26 08:19:29;;;;;;;3.72;2.72;;;11.70;97.20;;;;;;5060866;28;20140;-65
2024/03/26 08:21:54;;;;;;;4.05;2.40;;;11.60;94.70;;;;;;5061201;28;20081;-66
2024/03/26 08:24:20;;;;;;;3.88;2.13;;;11.60;95.30;;;;;;5038532;28;20083;-66
2024/03/26 08:26:46;;;;;;;4.43;2.30;;;11.60;95.90;;;;;;5058542;28;20039;-67
2024/03/26 08:29:12;;;;;;;3.90;2.35;;;11.40;94.90;;;;;;5061695;28;20060;-71
2024/03/26 08:31:38;;;;;;;2.03;1.70;;;11.40;94.40;;;;;;5061156;28;20343;-67
2024/03/26 08:34:03;;;;;;;3.55;2.13;;;11.20;93.90;;;;;;5061095;28;20123;-67
2024/03/26 08:36:29;;;;;;;7.25;2.15;;;11.20;94.30;;;;;;5043258;28;20039;-67
2024/03/26 08:38:55;;;;;;;5.25;2.78;;;11.20;94.60;;;;;;5060609;28;20548;-68
2024/03/26 08:41:21;;;;;;;3.72;1.80;;;11.00;94.40;;;;;;5060303;28;20028;-67
2024/03/26 08:43:47;;;;;;;3.53;2.40;;;11.00;94.60;;;;;;5058859;28;20016;-67
2024/03/26 08:46:13;;;;;;;2.78;2.03;;;11.10;94.80;;;;;;5042959;28;20071;-66
2024/03/26 08:48:38;;;;;;;3.40;2.05;;;11.10;93.90;;;;;;5060863;28;20032;-67
2024/03/26 08:51:04;;;;;;;3.33;1.60;;;11.10;94.70;;;;;;5060827;28;20039;-67
2024/03/26 08:53:31;;;;;;;3.55;1.67;;;11.20;93.60;;;;;;5041567;28;20024;-67
2024/03/26 08:55:57;;;;;;;4.72;3.35;;;11.50;93.30;;;;;;5060255;28;20512;-66
2024/03/26 08:58:23;;;;;;;2.40;1.50;;;11.60;93.10;;;;;;5060835;28;20135;-64
2024/03/26 09:00:48;;;;;;;3.35;2.03;;;11.70;92.20;;;;;;5060505;28;20110;-66
2024/03/26 09:03:15;;;;;;;2.17;1.58;;;11.90;92.10;;;;;;5060137;28;20028;-67
2024/03/26 09:05:40;;;;;;;4.07;2.28;;;12.20;91.20;;;;;;5059594;28;21099;-67
2024/03/26 09:08:07;;;;;;;4.25;1.80;;;12.60;90.90;;;;;;5056948;28;20028;-67
2024/03/26 09:10:33;;;;;;;1.65;1.15;;;13.30;90.10;;;;;;5041202;28;20028;-66
2024/03/26 09:12:59;;;;;;;7.68;1.58;;;13.80;85.10;;;;;;5059498;28;20028;-67
2024/03/26 09:15:25;;;;;;;2.72;1.30;;;14.10;83.40;;;;;;5037739;28;21609;-67
2024/03/26 09:17:52;;;;;;;1.55;1.30;;;14.40;79.40;;;;;;5058867;28;20025;-67
2024/03/26 09:20:18;;;;;;;4.20;1.45;;;14.50;78.20;;;;;;5060883;28;20037;-66
2024/03/26 09:22:45;;;;;;;4.68;1.65;;;14.60;78.20;;;;;;5046926;28;20127;-66
2024/03/26 09:25:10;;;;;;;2.70;1.40;;;14.60;77.00;;;;;;5060812;28;20039;-68
2024/03/26 09:27:36;;;;;;;1.85;1.10;;;14.60;77.60;;;;;;5064030;28;20476;-66
2024/03/26 09:30:02;;;;;;;2.95;2.10;;;14.60;76.70;;;;;;5064468;28;20448;-67
2024/03/26 09:32:28;;;;;;;1.30;1.20;;;14.60;71.50;;;;;;5044932;28;20047;-66
2024/03/26 09:34:54;;;;;;;1.20;1.10;;;14.50;69.60;;;;;;5045886;28;20028;-67
2024/03/26 09:37:20;;;;;;;1.25;1.10;;;14.50;74.20;;;;;;5062499;28;20140;-67
2024/03/26 09:39:47;;;;;;;1.23;0.82;;;14.30;74.40;;;;;;5061374;28;20039;-67
2024/03/26 09:42:13;;;;;;;1.40;1.30;;;14.10;71.00;;;;;;5062105;28;20439;-67
2024/03/26 09:44:40;;;;;;;1.73;1.17;;;13.60;70.50;;;;;;5064144;28;20040;-67
2024/03/26 09:47:07;;;;;;;5.30;1.10;;;13.30;73.00;;;;;;5063420;28;20029;-66
2024/03/26 09:49:34;;;;;;;2.35;1.02;;;13.20;71.50;;;;;;5062253;28;20475;-66
2024/03/26 09:52:01;;;;;;;2.60;1.35;;;13.40;74.60;;;;;;5063918;28;20043;-66
2024/03/26 09:54:28;;;;;;;1.52;1.17;;;13.60;76.00;;;;;;5064174;28;20148;-68
2024/03/26 09:56:55;;;;;;;3.25;1.48;;;13.80;70.40;;;;;;5063145;28;20482;-67
2024/03/26 09:59:21;;;;;;;2.38;1.30;;;14.00;72.70;;;;;;5043626;28;20834;-66
2024/03/26 10:01:47;;;;;;;1.38;1.27;;;13.90;70.10;;;;;;5064249;28;20177;-67
2024/03/26 10:04:13;;;;;;;2.28;1.63;;;13.90;73.00;;;;;;5063028;28;20024;-66
2024/03/26 10:06:43;;;;;;;5.60;1.20;;;13.80;71.50;;;;;;5063400;28;20024;-67
2024/03/26 10:09:08;;;;;;;2.15;1.38;;;13.80;69.90;;;;;;5043990;28;20032;-67
2024/03/26 10:11:35;;;;;;;3.28;1.25;;;13.90;69.30;;;;;;5062569;28;20052;-66
2024/03/26 10:14:01;;;;;;;1.70;1.10;;;14.30;72.40;;;;;;5063534;28;20025;-67
2024/03/26 10:16:27;;;;;;;2.15;1.30;;;14.70;68.90;;;;;;5062042;28;20082;-67
2024/03/26 10:18:52;;;;;;;3.00;1.27;;;15.30;71.90;;;;;;5063033;28;20673;-67
2024/03/26 10:21:18;;;;;;;2.25;1.30;;;15.50;66.10;;;;;;5063827;28;20513;-66
2024/03/26 10:23:44;;;;;;;3.00;1.67;;;15.70;67.20;;;;;;5063407;28;20025;-67
2024/03/26 10:26:10;;;;;;;2.88;1.30;;;15.70;65.30;;;;;;5062985;28;20029;-67
2024/03/26 10:28:36;;;;;;;1.30;1.20;;;15.80;63.30;;;;;;5063027;28;20070;-66
2024/03/26 10:31:03;;;;;;;2.58;1.45;;;16.20;65.00;;;;;;5062998;28;20492;-66
2024/03/26 10:33:30;;;;;;;1.58;1.13;;;16.50;63.40;;;;;;5061697;28;20040;-66
2024/03/26 10:35:56;;;;;;;1.27;1.17;;;16.60;64.40;;;;;;5062519;28;20316;-66
2024/03/26 10:38:24;;;;;;;2.95;1.33;;;16.40;63.20;;;;;;5063154;28;20476;-67
2024/03/26 10:40:55;;;;;;;1.80;1.10;;;16.60;63.40;;;;;;5060932;28;20701;-67
2024/03/26 10:43:20;;;;;;;2.20;1.00;;;16.50;62.20;;;;;;5062329;28;20040;-66
2024/03/26 10:45:47;;;;;;;2.60;1.23;;;16.50;62.50;;;;;;5061450;28;20086;-66
2024/03/26 10:48:14;;;;;;;1.77;1.13;;;16.30;63.60;;;;;;5041749;28;20029;-66
2024/03/26 10:50:42;;;;;;;3.70;1.30;;;16.60;62.50;;;;;;5062915;28;20427;-66
2024/03/26 10:53:08;;;;;;;1.25;1.10;;;16.60;62.10;;;;;;5062389;28;20832;-66
2024/03/26 10:55:34;;;;;;;3.33;1.20;;;16.00;61.00;;;;;;5062132;28;20412;-67
2024/03/26 10:58:00;;;;;;;3.83;1.50;;;16.00;62.20;;;;;;5060203;28;20185;-67
2024/03/26 11:00:27;;;;;;;1.83;1.33;;;15.70;63.40;;;;;;5062736;28;20048;-67
2024/03/26 11:02:55;;;;;;;2.95;1.25;;;15.80;62.30;;;;;;5059697;28;20043;-68
2024/03/26 11:05:22;;;;;;;2.17;1.25;;;16.10;61.00;;;;;;5054238;28;20027;-66
2024/03/26 11:07:49;;;;;;;2.22;1.52;;;16.30;61.40;;;;;;5059545;28;20036;-66
2024/03/26 11:10:21;;;;;;;1.60;1.30;;;16.50;60.50;;;;;;5061733;28;20042;-66
2024/03/26 11:12:51;;;;;;;1.98;1.20;;;16.50;62.10;;;;;;5059545;28;20420;-66
2024/03/26 11:15:17;;;;;;;1.80;1.20;;;16.70;61.50;;;;;;5039686;28;20109;-66
2024/03/26 11:18:03;;;;;;;2.47;1.58;;;16.70;61.60;;;;;;5060133;28;20541;-66
2024/03/26 11:20:30;;;;;;;2.92;1.48;;;16.00;61.60;;;;;;5062464;28;20028;-65
2024/03/26 11:23:06;;;;;;;2.58;1.10;;;15.50;63.00;;;;;;5059454;28;20032;-70
2024/03/26 11:25:35;;;;;;;2.85;1.27;;;15.10;62.30;;;;;;5059287;28;20035;-66
2024/03/26 11:28:02;;;;;;;1.83;1.27;;;14.70;63.60;;;;;;5061915;28;20031;-66
2024/03/26 11:30:28;;;;;;;2.38;1.23;;;14.70;65.90;;;;;;5061017;28;20492;-67
2024/03/26 11:32:55;;;;;;;1.90;1.10;;;14.80;65.00;;;;;;5046736;28;20024;-67
2024/03/26 11:35:26;;;;;;;2.17;1.17;;;14.60;64.30;;;;;;5061919;28;20522;-67
2024/03/26 11:37:53;;;;;;;2.00;1.15;;;14.60;65.60;;;;;;5042911;28;20052;-65
2024/03/26 11:40:20;;;;;;;2.60;1.50;;;14.60;64.90;;;;;;5059732;28;20028;-65
2024/03/26 11:42:47;;;;;;;2.88;1.63;;;14.60;65.50;;;;;;5061790;28;20459;-68
2024/03/26 11:45:14;;;;;;;3.42;1.60;;;14.60;67.10;;;;;;5060878;28;20734;-67
2024/03/26 11:47:40;;;;;;;4.32;1.70;;;14.50;66.80;;;;;;5060492;28;20066;-67
2024/03/26 11:50:09;;;;;;;2.10;1.63;;;14.60;67.20;;;;;;5061886;28;20044;-68
2024/03/26 11:52:35;;;;;;;1.92;1.30;;;14.40;65.60;;;;;;5061122;28;20052;-67
2024/03/26 11:55:01;;;;;;;2.38;1.55;;;14.30;66.40;;;;;;5061161;28;20439;-67
2024/03/26 11:57:30;;;;;;;3.22;2.08;;;14.30;65.60;;;;;;5060383;28;20221;-67
2024/03/26 11:59:56;;;;;;;2.67;1.38;;;14.40;66.00;;;;;;5061176;28;20028;-67
2024/03/26 12:02:22;;;;;;;2.28;1.50;;;14.40;66.20;;;;;;5061511;28;20029;-71
2024/03/26 12:04:48;;;;;;;2.00;1.52;;;14.60;66.00;;;;;;5045634;28;20682;-67
2024/03/26 12:07:20;;;;;;;3.53;1.48;;;14.60;65.40;;;;;;5061161;28;20039;-68
2024/03/26 12:09:46;;;;;;;2.13;1.50;;;14.80;67.40;;;;;;5061120;28;20032;-68
2024/03/26 12:12:12;;;;;;;1.73;1.40;;;14.70;65.00;;;;;;5061506;28;20032;-67
2024/03/26 12:14:39;;;;;;;3.30;1.63;;;14.60;64.40;;;;;;5058505;28;20762;-70
2024/03/26 12:17:05;;;;;;;3.47;1.77;;;14.60;67.10;;;;;;5059835;28;20032;-69
2024/03/26 12:19:32;;;;;;;2.42;1.55;;;14.60;65.60;;;;;;5061044;28;20028;-68
2024/03/26 12:22:05;;;;;;;2.58;1.58;;;14.70;67.00;;;;;;5060943;28;20024;-67
2024/03/26 12:24:30;;;;;;;2.90;1.50;;;14.80;65.60;;;;;;5060409;28;20035;-66
2024/03/26 12:26:56;;;;;;;3.47;1.60;;;14.80;63.90;;;;;;5060373;28;20029;-65
2024/03/26 12:29:22;;;;;;;2.50;1.50;;;14.80;66.30;;;;;;5060887;28;20040;-66
2024/03/26 12:31:48;;;;;;;1.30;1.20;;;14.80;63.90;;;;;;5059589;28;20025;-66
2024/03/26 12:34:14;;;;;;;1.63;1.30;;;14.70;62.20;;;;;;5060100;28;20438;-67
2024/03/26 12:36:41;;;;;;;2.58;1.33;;;14.60;62.90;;;;;;5059663;28;20028;-64
2024/03/26 12:39:09;;;;;;;4.03;1.58;;;14.50;63.30;;;;;;5058961;28;20032;-68
2024/03/26 12:41:36;;;;;;;3.10;1.60;;;14.50;63.50;;;;;;5059280;28;20048;-71
2024/03/26 12:44:06;;;;;;;2.05;1.25;;;14.50;64.00;;;;;;5058958;28;20115;-72
2024/03/26 12:46:32;;;;;;;3.30;2.08;;;14.50;62.90;;;;;;5060704;28;20033;-67